Time,TemperatureF,DewpointF,PressureIn,WindDirection,WindDirectionDegrees,WindSpeedMPH,WindSpeedGustMPH,Humidity,HourlyPrecipIn,Conditions,Clouds,dailyrainin,SoftwareType,DateUTC
2013-08-23 00:12:00,61.0,55.0,-100.00,West,270,0.0,1.0,80,-99.99,,,-99.99,,2013-08-23 07:12:00,
2013-08-23 00:22:00,61.0,55.0,-100.00,West,270,1.0,1.0,81,-99.99,,,-99.99,,2013-08-23 07:22:00,
2013-08-23 00:42:00,61.0,54.0,-100.00,West,270,1.0,2.0,79,-99.99,,,-99.99,,2013-08-23 07:42:00,
2013-08-23 00:52:00,60.0,54.0,-100.00,West,270,1.0,3.0,80,-99.99,,,-99.99,,2013-08-23 07:52:00,
2013-08-23 01:12:00,60.0,55.0,-100.00,NW,315,1.0,3.0,84,-99.99,,,-99.99,,2013-08-23 08:12:00,
2013-08-23 01:22:00,59.0,55.0,-100.00,West,270,3.0,4.0,86,-99.99,,,-99.99,,2013-08-23 08:22:00,
2013-08-23 01:42:00,59.0,55.0,-100.00,West,270,1.0,3.0,86,-99.99,,,-99.99,,2013-08-23 08:42:00,
2013-08-23 01:52:00,59.0,55.0,-100.00,SW,225,1.0,3.0,87,-99.99,,,-99.99,,2013-08-23 08:52:00,
2013-08-23 02:12:00,58.0,54.0,-100.00,West,270,1.0,3.0,87,-99.99,,,-99.99,,2013-08-23 09:12:00,
2013-08-23 02:21:00,58.0,54.0,-100.00,NW,315,0.0,1.0,88,-99.99,,,-99.99,,2013-08-23 09:21:00,
2013-08-23 02:43:00,58.0,54.0,-100.00,West,270,1.0,1.0,88,-99.99,,,-99.99,,2013-08-23 09:43:00,
2013-08-23 02:53:00,57.0,54.0,-100.00,NW,315,1.0,2.0,90,-99.99,,,-99.99,,2013-08-23 09:53:00,
2013-08-23 03:13:00,57.0,54.0,-100.00,West,270,0.0,1.0,90,-99.99,,,-99.99,,2013-08-23 10:13:00,
2013-08-23 03:22:00,57.0,54.0,-100.00,West,270,1.0,2.0,90,-99.99,,,-99.99,,2013-08-23 10:22:00,
2013-08-23 03:42:00,56.0,54.0,-100.00,West,270,1.0,3.0,92,-99.99,,,-99.99,,2013-08-23 10:42:00,
2013-08-23 03:52:00,56.0,54.0,-100.00,West,270,1.0,2.0,93,-99.99,,,-99.99,,2013-08-23 10:52:00,
2013-08-23 04:11:00,55.0,53.0,-100.00,West,270,0.0,1.0,93,-99.99,,,-99.99,,2013-08-23 11:11:00,
2013-08-23 04:22:00,55.0,53.0,-100.00,NW,315,0.0,1.0,94,-99.99,,,-99.99,,2013-08-23 11:22:00,
2013-08-23 04:42:00,55.0,53.0,-100.00,West,270,1.0,2.0,94,-99.99,,,-99.99,,2013-08-23 11:42:00,
2013-08-23 04:52:00,54.0,53.0,-100.00,West,270,0.0,1.0,95,-99.99,,,-99.99,,2013-08-23 11:52:00,
2013-08-23 05:11:00,55.0,53.0,-100.00,West,270,0.0,1.0,95,-99.99,,,-99.99,,2013-08-23 12:11:00,
2013-08-23 05:22:00,54.0,53.0,-100.00,SW,225,0.0,1.0,95,-99.99,,,-99.99,,2013-08-23 12:22:00,
2013-08-23 05:42:00,54.0,53.0,-100.00,SW,225,1.0,2.0,96,-99.99,,,-99.99,,2013-08-23 12:42:00,
2013-08-23 05:52:00,54.0,53.0,-100.00,West,270,1.0,-999.0,96,-99.99,,,-99.99,,2013-08-23 12:52:00,
2013-08-23 06:11:00,54.0,54.0,-100.00,South,180,1.0,3.0,97,-99.99,,,-99.99,,2013-08-23 13:11:00,
2013-08-23 06:22:00,54.0,54.0,-100.00,SW,225,1.0,3.0,97,-99.99,,,-99.99,,2013-08-23 13:22:00,
2013-08-23 06:42:00,54.0,54.0,-100.00,West,270,0.0,1.0,97,-99.99,,,-99.99,,2013-08-23 13:42:00,
2013-08-23 06:52:00,55.0,54.0,-100.00,SW,225,1.0,2.0,97,-99.99,,,-99.99,,2013-08-23 13:52:00,
2013-08-23 07:12:00,55.0,54.0,-100.00,West,270,1.0,3.0,97,-99.99,,,-99.99,,2013-08-23 14:12:00,
2013-08-23 07:21:00,54.0,54.0,-100.00,SW,225,1.0,3.0,97,-99.99,,,-99.99,,2013-08-23 14:21:00,
2013-08-23 07:42:00,55.0,54.0,-100.00,SW,225,1.0,3.0,98,-99.99,,,-99.99,,2013-08-23 14:42:00,
2013-08-23 07:52:00,55.0,54.0,-100.00,SW,225,1.0,2.0,98,-99.99,,,-99.99,,2013-08-23 14:52:00,
2013-08-23 08:11:00,55.0,54.0,-100.00,SW,225,3.0,4.0,97,-99.99,,,-99.99,,2013-08-23 15:11:00,
2013-08-23 08:22:00,55.0,54.0,-100.00,West,270,1.0,3.0,97,-99.99,,,-99.99,,2013-08-23 15:22:00,
2013-08-23 08:43:00,55.0,54.0,-100.00,SW,225,1.0,2.0,97,-99.99,,,-99.99,,2013-08-23 15:43:00,
2013-08-23 08:54:00,55.0,54.0,-100.00,West,270,1.0,3.0,96,-99.99,,,-99.99,,2013-08-23 15:54:00,
2013-08-23 09:13:00,56.0,54.0,-100.00,SW,225,1.0,2.0,95,-99.99,,,-99.99,,2013-08-23 16:13:00,
2013-08-23 09:24:00,56.0,54.0,-100.00,North,0,1.0,3.0,96,-99.99,,,-99.99,,2013-08-23 16:24:00,
2013-08-23 09:42:00,56.0,55.0,-100.00,South,180,1.0,4.0,96,-99.99,,,-99.99,,2013-08-23 16:42:00,
2013-08-23 09:53:00,56.0,55.0,-100.00,South,180,2.0,4.0,95,-99.99,,,-99.99,,2013-08-23 16:53:00,
2013-08-23 10:13:00,57.0,55.0,-100.00,South,180,1.0,4.0,94,-99.99,,,-99.99,,2013-08-23 17:13:00,
2013-08-23 10:23:00,57.0,55.0,-100.00,South,180,2.0,3.0,92,-99.99,,,-99.99,,2013-08-23 17:23:00,
2013-08-23 10:42:00,59.0,55.0,-100.00,SW,225,1.0,3.0,87,-99.99,,,-99.99,,2013-08-23 17:42:00,
2013-08-23 10:53:00,59.0,56.0,-100.00,South,180,2.0,4.0,88,-99.99,,,-99.99,,2013-08-23 17:53:00,
2013-08-23 11:12:00,61.0,56.0,-100.00,SW,225,4.0,6.0,83,-99.99,,,-99.99,,2013-08-23 18:12:00,
2013-08-23 11:22:00,62.0,56.0,-100.00,South,180,3.0,4.0,80,-99.99,,,-99.99,,2013-08-23 18:22:00,
2013-08-23 11:42:00,65.0,56.0,-100.00,SW,225,4.0,5.0,73,-99.99,,,-99.99,,2013-08-23 18:42:00,
2013-08-23 11:52:00,66.0,56.0,-100.00,SW,225,3.0,-999.0,70,-99.99,,,-99.99,,2013-08-23 18:52:00,
2013-08-23 12:11:00,67.0,56.0,-100.00,South,180,4.0,8.0,67,-99.99,,,-99.99,,2013-08-23 19:11:00,
2013-08-23 12:22:00,68.0,56.0,-100.00,SW,225,3.0,6.0,64,-99.99,,,-99.99,,2013-08-23 19:22:00,
2013-08-23 12:42:00,70.0,56.0,-100.00,South,180,1.0,6.0,61,-99.99,,,-99.99,,2013-08-23 19:42:00,
2013-08-23 12:52:00,71.0,56.0,-100.00,SW,225,3.0,6.0,58,-99.99,,,-99.99,,2013-08-23 19:52:00,
2013-08-23 13:12:00,71.0,55.0,-100.00,South,180,2.0,8.0,57,-99.99,,,-99.99,,2013-08-23 20:12:00,
2013-08-23 13:22:00,72.0,55.0,-100.00,SE,135,2.0,7.0,55,-99.99,,,-99.99,,2013-08-23 20:22:00,
2013-08-23 13:42:00,73.0,54.0,-100.00,South,180,4.0,9.0,52,-99.99,,,-99.99,,2013-08-23 20:42:00,
2013-08-23 13:52:00,73.0,52.0,-100.00,South,180,2.0,9.0,48,-99.99,,,-99.99,,2013-08-23 20:52:00,
2013-08-23 14:11:00,75.0,52.0,-100.00,South,180,4.0,9.0,45,-99.99,,,-99.99,,2013-08-23 21:11:00,
2013-08-23 14:21:00,74.0,51.0,-100.00,SW,225,4.0,9.0,44,-99.99,,,-99.99,,2013-08-23 21:21:00,
2013-08-23 14:43:00,75.0,52.0,-100.00,SW,225,4.0,11.0,45,-99.99,,,-99.99,,2013-08-23 21:43:00,
2013-08-23 14:54:00,75.0,52.0,-100.00,SW,225,7.0,14.0,45,-99.99,,,-99.99,,2013-08-23 21:54:00,
2013-08-23 15:13:00,73.0,50.0,-100.00,SW,225,6.0,13.0,45,-99.99,,,-99.99,,2013-08-23 22:13:00,
2013-08-23 15:43:00,73.0,51.0,-100.00,SW,225,6.0,12.0,47,-99.99,,,-99.99,,2013-08-23 22:43:00,
2013-08-23 15:53:00,74.0,51.0,-100.00,SW,225,4.0,10.0,44,-99.99,,,-99.99,,2013-08-23 22:53:00,
2013-08-23 16:12:00,74.0,50.0,-100.00,North,0,1.0,9.0,43,-99.99,,,-99.99,,2013-08-23 23:12:00,
2013-08-23 16:22:00,73.0,50.0,-100.00,South,180,4.0,12.0,44,-99.99,,,-99.99,,2013-08-23 23:22:00,
2013-08-23 16:43:00,74.0,51.0,-100.00,West,270,4.0,8.0,44,-99.99,,,-99.99,,2013-08-23 23:43:00,
2013-08-23 16:54:00,74.0,51.0,-100.00,SW,225,4.0,8.0,44,-99.99,,,-99.99,,2013-08-23 23:54:00,
2013-08-23 17:11:00,75.0,51.0,-100.00,SW,225,3.0,6.0,44,-99.99,,,-99.99,,2013-08-24 00:11:00,
2013-08-23 17:21:00,74.0,52.0,-100.00,South,180,3.0,8.0,46,-99.99,,,-99.99,,2013-08-24 00:21:00,
2013-08-23 17:43:00,73.0,52.0,-100.00,West,270,2.0,5.0,47,-99.99,,,-99.99,,2013-08-24 00:43:00,
2013-08-23 17:53:00,72.0,54.0,-100.00,South,180,4.0,-999.0,54,-99.99,,,-99.99,,2013-08-24 00:53:00,
2013-08-23 18:11:00,69.0,53.0,-100.00,SW,225,4.0,9.0,57,-99.99,,,-99.99,,2013-08-24 01:11:00,
2013-08-23 18:22:00,68.0,53.0,-100.00,West,270,4.0,9.0,59,-99.99,,,-99.99,,2013-08-24 01:22:00,
2013-08-23 18:42:00,68.0,53.0,-100.00,SW,225,3.0,8.0,60,-99.99,,,-99.99,,2013-08-24 01:42:00,
2013-08-23 18:53:00,67.0,53.0,-100.00,SW,225,3.0,11.0,61,-99.99,,,-99.99,,2013-08-24 01:53:00,
2013-08-23 19:11:00,66.0,53.0,-100.00,SW,225,2.0,7.0,63,-99.99,,,-99.99,,2013-08-24 02:11:00,
2013-08-23 19:22:00,64.0,53.0,-100.00,West,270,3.0,6.0,66,-99.99,,,-99.99,,2013-08-24 02:22:00,
2013-08-23 19:42:00,63.0,52.0,-100.00,SW,225,1.0,5.0,67,-99.99,,,-99.99,,2013-08-24 02:42:00,
2013-08-23 19:52:00,63.0,52.0,-100.00,SE,135,0.0,4.0,68,-99.99,,,-99.99,,2013-08-24 02:52:00,
2013-08-23 20:12:00,63.0,53.0,-100.00,West,270,1.0,3.0,70,-99.99,,,-99.99,,2013-08-24 03:12:00,
2013-08-23 20:22:00,62.0,53.0,-100.00,SW,225,1.0,2.0,72,-99.99,,,-99.99,,2013-08-24 03:22:00,
2013-08-23 20:44:00,61.0,53.0,-100.00,SW,225,0.0,2.0,74,-99.99,,,-99.99,,2013-08-24 03:44:00,
2013-08-23 20:54:00,60.0,52.0,-100.00,SW,225,1.0,1.0,76,-99.99,,,-99.99,,2013-08-24 03:54:00,
2013-08-23 21:14:00,59.0,52.0,-100.00,SW,225,1.0,2.0,78,-99.99,,,-99.99,,2013-08-24 04:14:00,
2013-08-23 21:24:00,59.0,52.0,-100.00,West,270,1.0,2.0,79,-99.99,,,-99.99,,2013-08-24 04:24:00,
2013-08-23 21:44:00,58.0,52.0,-100.00,NW,315,1.0,1.0,80,-99.99,,,-99.99,,2013-08-24 04:44:00,
2013-08-23 21:53:00,57.0,52.0,-100.00,West,270,0.0,1.0,82,-99.99,,,-99.99,,2013-08-24 04:53:00,
2013-08-23 22:13:00,57.0,51.0,-100.00,West,270,2.0,2.0,82,-99.99,,,-99.99,,2013-08-24 05:13:00,
2013-08-23 22:23:00,56.0,51.0,-100.00,West,270,0.0,1.0,83,-99.99,,,-99.99,,2013-08-24 05:23:00,
2013-08-23 22:43:00,56.0,51.0,-100.00,SW,225,0.0,1.0,84,-99.99,,,-99.99,,2013-08-24 05:43:00,
2013-08-23 22:53:00,55.0,50.0,-100.00,West,270,0.0,1.0,84,-99.99,,,-99.99,,2013-08-24 05:53:00,
2013-08-23 23:12:00,55.0,50.0,-100.00,West,270,0.0,1.0,84,-99.99,,,-99.99,,2013-08-24 06:12:00,
2013-08-23 23:22:00,54.0,50.0,-100.00,West,270,1.0,1.0,86,-99.99,,,-99.99,,2013-08-24 06:22:00,
2013-08-23 23:42:00,54.0,51.0,-100.00,West,270,0.0,1.0,87,-99.99,,,-99.99,,2013-08-24 06:42:00,
2013-08-23 23:52:00,54.0,51.0,-100.00,SW,225,1.0,-999.0,88,-99.99,,,-99.99,,2013-08-24 06:52:00,